KBMG/BMG METAR and TAF weather

Enter ICAO airport designator
Station Type Date Time Source
KBMG METAR 2019/10/21 22:53 UTC NOAA

KBMG 212253Z 20011G18KT 10SM BKN030 BKN040 OVC049 18/13 A2966 RMK AO2 SLP040 T01830133


Station Type Date Time Source
KBMG Decoded METAR 2019/10/21 22:53 UTC NOAA

MONROE COUNTY AIRPORT, IN, United States (KBMG) 39-09N 086-37W 257M
Oct 21, 2019 - 06:53 PM EDT / 2019.10.21 2253 UTC
Wind: from the SSW (200 degrees) at 13 MPH (11 KT) gusting to 21 MPH (18 KT):0
Visibility: 10 mile(s):0
Sky conditions: overcast
Temperature: 64.9 F (18.3 C)
Dew Point: 55.9 F (13.3 C)
Relative Humidity: 72%
Pressure (altimeter): 29.66 in. Hg (1004 hPa)
ob: KBMG 212253Z 20011G18KT 10SM BKN030 BKN040 OVC049 18/13 A2966 RMK AO2 SLP040 T01830133
cycle: 23

Station Type Date Time Source
KBMG TAF 2019/10/21 18:30 UTC NOAA

TAF KBMG 211728Z 2118/2218 16015G24KT P6SM VCSH FEW009 BKN020
FM211900 18016G26KT 6SM -SHRA BR OVC021
FM212300 21015KT P6SM VCSH OVC040
FM220300 24010KT P6SM BKN200
FM221400 24011G19KT P6SM FEW090

Example: see airport list